createdAt,value
2022-09-17T00:00:11.541Z,0.00
2022-09-17T00:01:11.526Z,0.00
2022-09-17T00:02:11.557Z,0.00
2022-09-17T00:03:11.665Z,0.00
2022-09-17T00:04:11.499Z,0.00
2022-09-17T00:05:11.486Z,0.00
2022-09-17T00:06:11.467Z,0.00
2022-09-17T00:07:11.463Z,0.00
2022-09-17T00:08:11.495Z,0.00
2022-09-17T00:09:11.440Z,0.00
2022-09-17T00:10:11.423Z,0.00
2022-09-17T00:11:11.422Z,0.00
2022-09-17T00:12:11.401Z,0.00
2022-09-17T00:13:11.397Z,0.00
2022-09-17T00:14:11.395Z,0.00
2022-09-17T00:15:11.374Z,0.00
2022-09-17T00:16:11.430Z,0.00
2022-09-17T00:17:11.351Z,0.00
2022-09-17T00:18:11.338Z,0.00
2022-09-17T00:19:11.458Z,0.00
2022-09-17T00:20:11.321Z,0.00
2022-09-17T00:21:11.307Z,0.00
2022-09-17T00:22:11.292Z,0.00
2022-09-17T00:23:11.275Z,0.00
2022-09-17T00:24:11.290Z,0.00
2022-09-17T00:25:11.268Z,0.00
2022-09-17T00:26:11.241Z,0.00
2022-09-17T00:27:11.239Z,0.00
2022-09-17T00:28:11.226Z,0.00
2022-09-17T00:29:11.211Z,0.00
2022-09-17T00:30:11.211Z,0.00
2022-09-17T00:31:11.270Z,0.00
2022-09-17T00:32:11.182Z,0.00
2022-09-17T00:33:11.167Z,0.00
2022-09-17T00:34:11.153Z,0.00
2022-09-17T00:35:11.282Z,0.00
2022-09-17T00:36:11.137Z,0.00
2022-09-17T00:37:11.138Z,0.00
2022-09-17T00:38:11.115Z,0.00
2022-09-17T00:39:11.099Z,0.00
2022-09-17T00:40:11.205Z,0.00
2022-09-17T00:41:11.082Z,0.00
2022-09-17T00:42:11.072Z,0.00
2022-09-17T00:43:11.060Z,0.00
2022-09-17T00:44:11.055Z,0.00
2022-09-17T00:45:11.029Z,0.00
2022-09-17T00:46:11.094Z,0.00
2022-09-17T00:47:11.007Z,0.00
2022-09-17T00:48:10.996Z,0.00
2022-09-17T00:49:10.992Z,0.00
2022-09-17T00:50:10.986Z,0.00
2022-09-17T00:51:11.111Z,0.00
2022-09-17T00:52:10.960Z,0.00
2022-09-17T00:53:10.947Z,0.00
2022-09-17T00:54:10.937Z,0.00
2022-09-17T00:55:10.942Z,0.00
2022-09-17T00:56:10.912Z,0.00
2022-09-17T00:57:10.947Z,0.00
2022-09-17T00:58:10.888Z,0.00
2022-09-17T00:59:10.880Z,0.00
2022-09-17T01:00:10.859Z,0.00
2022-09-17T01:01:10.933Z,0.00
2022-09-17T01:02:10.929Z,0.00
2022-09-17T01:03:10.844Z,0.00
2022-09-17T01:04:10.823Z,0.00
2022-09-17T01:05:10.814Z,0.00
2022-09-17T01:06:10.801Z,0.00
2022-09-17T01:07:10.911Z,0.00
2022-09-17T01:08:10.786Z,0.00
2022-09-17T01:09:10.767Z,0.00
2022-09-17T01:10:10.749Z,0.00
2022-09-17T01:11:10.747Z,0.00
2022-09-17T01:12:10.730Z,0.00
2022-09-17T01:13:10.734Z,0.00
2022-09-17T01:14:10.715Z,0.00
2022-09-17T01:15:10.701Z,0.00
2022-09-17T01:16:10.793Z,0.00
2022-09-17T01:17:10.670Z,0.00
2022-09-17T01:18:10.658Z,0.00
2022-09-17T01:19:10.671Z,0.00
2022-09-17T01:20:10.639Z,0.00
2022-09-17T01:21:10.634Z,0.00
2022-09-17T01:22:10.618Z,0.00
2022-09-17T01:23:10.727Z,0.00
2022-09-17T01:24:10.606Z,0.00
2022-09-17T01:25:10.599Z,0.00
2022-09-17T01:26:10.580Z,0.00
2022-09-17T01:27:10.566Z,0.00
2022-09-17T01:28:10.546Z,0.00
2022-09-17T01:29:10.562Z,0.00
2022-09-17T01:30:10.522Z,0.00
2022-09-17T01:31:10.560Z,0.00
2022-09-17T01:32:10.501Z,0.00
2022-09-17T01:33:10.498Z,0.00
2022-09-17T01:34:10.479Z,0.00
2022-09-17T01:35:10.485Z,0.00
2022-09-17T01:36:10.455Z,0.00
2022-09-17T01:37:10.458Z,0.00
2022-09-17T01:38:10.437Z,0.00
2022-09-17T01:39:10.539Z,0.00
2022-09-17T01:40:10.477Z,0.00
2022-09-17T01:41:10.401Z,0.00
2022-09-17T01:42:10.408Z,0.00
2022-09-17T01:43:10.394Z,0.00
2022-09-17T01:44:10.374Z,0.00
2022-09-17T01:45:10.378Z,0.00
2022-09-17T01:46:10.405Z,0.00
2022-09-17T01:47:10.335Z,0.00
2022-09-17T01:48:10.325Z,0.00
2022-09-17T01:49:10.310Z,0.00
2022-09-17T01:50:10.319Z,0.00
2022-09-17T01:51:10.287Z,0.00
2022-09-17T01:52:10.285Z,0.00
2022-09-17T01:53:10.272Z,0.00
2022-09-17T01:54:10.254Z,0.00
2022-09-17T01:55:10.378Z,0.00
2022-09-17T01:56:10.244Z,0.00
2022-09-17T01:57:10.232Z,0.00
2022-09-17T01:58:10.226Z,0.00
2022-09-17T01:59:10.199Z,0.00
2022-09-17T02:00:10.210Z,0.00
2022-09-17T02:01:10.264Z,0.00
2022-09-17T02:02:10.235Z,0.00
2022-09-17T02:03:10.160Z,0.00
2022-09-17T02:04:10.148Z,0.00
2022-09-17T02:05:10.144Z,0.00
2022-09-17T02:06:10.123Z,0.00
2022-09-17T02:07:10.165Z,0.00
2022-09-17T02:08:10.106Z,0.00
2022-09-17T02:09:13.727Z,0.00
2022-09-17T02:10:11.092Z,0.00
2022-09-17T02:11:10.178Z,0.00
2022-09-17T02:12:10.059Z,0.00
2022-09-17T02:13:10.048Z,0.00
2022-09-17T02:14:10.038Z,0.00
2022-09-17T02:15:10.043Z,0.00
2022-09-17T02:16:10.067Z,0.00
2022-09-17T02:17:09.998Z,0.00
2022-09-17T02:18:09.982Z,0.00
2022-09-17T02:19:09.982Z,0.00
2022-09-17T02:20:09.976Z,0.00
2022-09-17T02:21:09.953Z,0.00
2022-09-17T02:22:09.939Z,0.00
2022-09-17T02:23:09.930Z,0.00
2022-09-17T02:24:09.929Z,0.00
2022-09-17T02:25:09.947Z,0.00
2022-09-17T02:26:09.898Z,0.00
2022-09-17T02:27:10.036Z,0.00
2022-09-17T02:28:09.873Z,0.00
2022-09-17T02:29:09.868Z,0.00
2022-09-17T02:30:09.886Z,0.00
2022-09-17T02:31:09.894Z,0.00
2022-09-17T02:32:09.840Z,0.00
2022-09-17T02:33:09.818Z,0.00
2022-09-17T02:34:09.814Z,0.00
2022-09-17T02:35:09.809Z,0.00
2022-09-17T02:36:09.793Z,0.00
2022-09-17T02:37:09.779Z,0.00
2022-09-17T02:38:09.768Z,0.00
2022-09-17T02:39:09.756Z,0.00
2022-09-17T02:40:09.875Z,0.00
2022-09-17T02:41:09.734Z,0.00
2022-09-17T02:42:09.718Z,0.00
2022-09-17T02:43:09.828Z,0.00
2022-09-17T02:44:09.699Z,0.00
2022-09-17T02:45:09.701Z,0.00
2022-09-17T02:46:11.258Z,0.00
2022-09-17T02:47:09.661Z,0.00
2022-09-17T02:48:09.657Z,0.00
2022-09-17T02:49:09.643Z,0.00
2022-09-17T02:50:09.635Z,0.00
2022-09-17T02:51:09.634Z,0.00
2022-09-17T02:52:09.610Z,0.00
2022-09-17T02:53:09.598Z,0.00
2022-09-17T02:54:09.592Z,0.00
2022-09-17T02:55:09.568Z,0.00
2022-09-17T02:56:09.600Z,0.00
2022-09-17T02:57:09.549Z,0.00
2022-09-17T02:58:09.543Z,0.00
2022-09-17T02:59:09.646Z,0.00
2022-09-17T03:00:09.516Z,0.00
2022-09-17T03:01:09.609Z,0.00
2022-09-17T03:02:09.575Z,0.00
2022-09-17T03:03:09.480Z,0.00
2022-09-17T03:04:09.468Z,0.00
2022-09-17T03:05:09.463Z,0.00
2022-09-17T03:06:09.468Z,0.00
2022-09-17T03:07:09.436Z,0.00
2022-09-17T03:08:09.439Z,0.00
2022-09-17T03:09:09.417Z,0.00
2022-09-17T03:10:09.409Z,0.00
2022-09-17T03:11:09.412Z,0.00
2022-09-17T03:12:09.380Z,0.00
2022-09-17T03:13:09.369Z,0.00
2022-09-17T03:14:09.363Z,0.00
2022-09-17T03:15:09.461Z,0.00
2022-09-17T03:16:09.440Z,0.00
2022-09-17T03:17:09.327Z,0.00
2022-09-17T03:18:09.317Z,0.00
2022-09-17T03:19:09.297Z,0.00
2022-09-17T03:20:09.294Z,0.00
2022-09-17T03:21:09.291Z,0.00
2022-09-17T03:22:09.272Z,0.00
2022-09-17T03:23:09.256Z,0.00
2022-09-17T03:24:09.251Z,0.00
2022-09-17T03:25:09.237Z,0.00
2022-09-17T03:26:09.245Z,0.00
2022-09-17T03:27:09.216Z,0.00
2022-09-17T03:28:09.202Z,0.00
2022-09-17T03:29:09.193Z,0.00
2022-09-17T03:30:09.175Z,0.00
2022-09-17T03:31:09.371Z,0.00
2022-09-17T03:32:09.154Z,0.00
2022-09-17T03:33:09.139Z,0.00
2022-09-17T03:34:09.134Z,0.00
2022-09-17T03:35:09.117Z,0.00
2022-09-17T03:36:09.128Z,0.00
2022-09-17T03:37:09.097Z,0.00
2022-09-17T03:38:09.112Z,0.00
2022-09-17T03:39:09.077Z,0.00
2022-09-17T03:40:09.106Z,0.00
2022-09-17T03:41:09.069Z,0.00
2022-09-17T03:42:09.048Z,0.00
2022-09-17T03:43:09.035Z,0.00
2022-09-17T03:44:09.019Z,0.00
2022-09-17T03:45:09.012Z,0.00
2022-09-17T03:46:09.069Z,0.00
2022-09-17T03:47:09.106Z,0.00
2022-09-17T03:48:08.972Z,0.00
2022-09-17T03:49:08.968Z,0.00
2022-09-17T03:50:08.950Z,0.00
2022-09-17T03:51:08.956Z,0.00
2022-09-17T03:52:08.927Z,0.00
2022-09-17T03:53:08.915Z,0.00
2022-09-17T03:54:08.914Z,0.00
2022-09-17T03:55:08.893Z,0.00
2022-09-17T03:56:08.902Z,0.00
2022-09-17T03:57:08.877Z,0.00
2022-09-17T03:58:08.871Z,0.00
2022-09-17T03:59:08.882Z,0.00
2022-09-17T04:00:08.838Z,0.00
2022-09-17T04:01:08.850Z,0.00
2022-09-17T04:02:08.997Z,0.00
2022-09-17T04:03:08.919Z,0.00
2022-09-17T04:04:08.801Z,0.00
2022-09-17T04:05:08.782Z,0.00
2022-09-17T04:06:08.791Z,0.00
2022-09-17T04:07:08.785Z,0.00
2022-09-17T04:08:08.768Z,0.00
2022-09-17T04:09:08.743Z,0.00
2022-09-17T04:10:08.739Z,0.00
2022-09-17T04:11:08.737Z,0.00
2022-09-17T04:12:08.703Z,0.00
2022-09-17T04:13:08.697Z,0.00
2022-09-17T04:14:08.679Z,0.00
2022-09-17T04:15:08.668Z,0.00
2022-09-17T04:16:08.732Z,0.00
2022-09-17T04:17:08.665Z,0.00
2022-09-17T04:18:08.635Z,0.00
2022-09-17T04:19:08.750Z,0.00
2022-09-17T04:20:08.616Z,0.00
2022-09-17T04:21:08.607Z,0.00
2022-09-17T04:22:08.610Z,0.00
2022-09-17T04:23:08.577Z,0.00
2022-09-17T04:24:08.580Z,0.00
2022-09-17T04:25:08.562Z,0.00
2022-09-17T04:26:08.558Z,0.00
2022-09-17T04:27:08.550Z,0.00
2022-09-17T04:28:08.522Z,0.00
2022-09-17T04:29:08.510Z,0.00
2022-09-17T04:30:08.500Z,0.00
2022-09-17T04:31:08.558Z,0.00
2022-09-17T04:32:08.484Z,0.00
2022-09-17T04:33:08.478Z,0.00
2022-09-17T04:34:08.462Z,0.00
2022-09-17T04:35:08.574Z,0.00
2022-09-17T04:36:08.432Z,0.00
2022-09-17T04:37:08.428Z,0.00
2022-09-17T04:38:08.421Z,0.00
2022-09-17T04:39:08.399Z,0.00
2022-09-17T04:40:08.513Z,0.00
2022-09-17T04:41:08.381Z,0.00
2022-09-17T04:42:08.368Z,0.00
2022-09-17T04:43:08.372Z,0.00
2022-09-17T04:44:08.342Z,0.00
2022-09-17T04:45:08.331Z,0.00
2022-09-17T04:46:08.418Z,0.00
2022-09-17T04:47:08.330Z,0.00
2022-09-17T04:48:08.317Z,0.00
2022-09-17T04:49:08.306Z,0.00
2022-09-17T04:50:08.280Z,0.00
2022-09-17T04:51:08.403Z,0.00
2022-09-17T04:52:08.297Z,0.00
2022-09-17T04:53:08.253Z,0.00
2022-09-17T04:54:08.249Z,0.00
2022-09-17T04:55:08.229Z,0.00
2022-09-17T04:56:08.252Z,0.00
2022-09-17T04:57:08.212Z,0.00
2022-09-17T04:58:08.209Z,0.00
2022-09-17T04:59:08.187Z,0.00
2022-09-17T05:00:08.177Z,0.00
2022-09-17T05:01:08.211Z,0.00
2022-09-17T05:02:08.208Z,0.00
2022-09-17T05:03:08.148Z,0.00
2022-09-17T05:04:08.117Z,0.00
2022-09-17T05:05:08.106Z,0.00
2022-09-17T05:06:08.103Z,0.00
2022-09-17T05:07:11.997Z,0.00
2022-09-17T05:08:09.098Z,0.00
2022-09-17T05:09:08.058Z,0.00
2022-09-17T05:10:08.059Z,0.00
2022-09-17T05:11:08.039Z,0.00
2022-09-17T05:12:08.027Z,0.00
2022-09-17T05:13:08.021Z,0.00
2022-09-17T05:14:08.018Z,0.00
2022-09-17T05:15:08.001Z,0.00
2022-09-17T05:16:08.092Z,0.00
2022-09-17T05:17:07.971Z,0.00
2022-09-17T05:18:07.969Z,0.00
2022-09-17T05:19:07.960Z,0.00
2022-09-17T05:20:07.948Z,0.00
2022-09-17T05:21:07.931Z,0.00
2022-09-17T05:22:07.917Z,0.00
2022-09-17T05:23:08.028Z,0.00
2022-09-17T05:24:07.907Z,0.00
2022-09-17T05:25:07.887Z,0.00
2022-09-17T05:26:07.879Z,0.00
2022-09-17T05:27:07.866Z,0.00
2022-09-17T05:28:07.845Z,0.00
2022-09-17T05:29:07.849Z,0.00
2022-09-17T05:30:07.832Z,5.62
2022-09-17T05:31:07.877Z,5.62
2022-09-17T05:32:07.811Z,5.62
2022-09-17T05:33:07.798Z,5.62
2022-09-17T05:34:07.810Z,5.62
2022-09-17T05:35:07.775Z,5.62
2022-09-17T05:36:07.758Z,5.62
2022-09-17T05:37:07.745Z,5.62
2022-09-17T05:38:07.777Z,5.62
2022-09-17T05:39:07.861Z,5.62
2022-09-17T05:40:07.763Z,5.62
2022-09-17T05:41:07.707Z,11.25
2022-09-17T05:42:07.708Z,11.25
2022-09-17T05:43:07.677Z,11.25
2022-09-17T05:44:07.683Z,11.25
2022-09-17T05:45:07.656Z,11.25
2022-09-17T05:46:07.701Z,11.25
2022-09-17T05:47:07.635Z,11.25
2022-09-17T05:48:07.628Z,11.25
2022-09-17T05:49:07.626Z,11.25
2022-09-17T05:50:07.613Z,16.88
2022-09-17T05:51:07.594Z,16.88
2022-09-17T05:52:07.579Z,16.88
2022-09-17T05:53:07.570Z,11.25
2022-09-17T05:54:07.594Z,16.88
2022-09-17T05:55:07.665Z,16.88
2022-09-17T05:56:07.540Z,22.50
2022-09-17T05:57:07.519Z,16.88
2022-09-17T05:58:07.518Z,16.88
2022-09-17T05:59:07.503Z,22.50
2022-09-17T06:00:07.510Z,22.50
2022-09-17T06:01:07.482Z,28.12
2022-09-17T06:02:07.516Z,33.75
2022-09-17T06:03:07.511Z,33.75
2022-09-17T06:04:07.449Z,33.75
2022-09-17T06:05:07.440Z,33.75
2022-09-17T06:06:07.426Z,39.38
2022-09-17T06:07:07.424Z,33.75
2022-09-17T06:08:07.411Z,28.12
2022-09-17T06:09:07.398Z,33.75
2022-09-17T06:10:07.389Z,33.75
2022-09-17T06:11:07.481Z,28.12
2022-09-17T06:12:07.356Z,28.12
2022-09-17T06:13:07.346Z,28.12
2022-09-17T06:14:07.338Z,28.12
2022-09-17T06:15:07.329Z,28.12
2022-09-17T06:16:07.352Z,33.75
2022-09-17T06:17:07.292Z,33.75
2022-09-17T06:18:07.290Z,39.38
2022-09-17T06:19:07.271Z,45.00
2022-09-17T06:20:07.274Z,50.62
2022-09-17T06:21:07.247Z,56.25
2022-09-17T06:22:07.239Z,56.25
2022-09-17T06:23:07.227Z,56.25
2022-09-17T06:24:07.216Z,50.62
2022-09-17T06:25:07.219Z,56.25
2022-09-17T06:26:07.204Z,56.25
2022-09-17T06:27:07.309Z,50.62
2022-09-17T06:28:07.195Z,50.62
2022-09-17T06:29:07.162Z,50.62
2022-09-17T06:30:07.166Z,56.25
2022-09-17T06:31:07.226Z,56.25
2022-09-17T06:32:07.126Z,61.88
2022-09-17T06:33:07.159Z,67.50
2022-09-17T06:34:07.105Z,67.50
2022-09-17T06:35:07.098Z,84.38
2022-09-17T06:36:12.520Z,84.38
2022-09-17T06:37:08.067Z,73.12
2022-09-17T06:38:07.068Z,67.50
2022-09-17T06:39:07.052Z,67.50
2022-09-17T06:40:07.100Z,73.12
2022-09-17T06:41:07.044Z,61.88
2022-09-17T06:42:07.012Z,56.25
2022-09-17T06:43:07.132Z,50.62
2022-09-17T06:44:06.997Z,50.62
2022-09-17T06:45:09.460Z,50.62
2022-09-17T06:46:07.030Z,50.62
2022-09-17T06:47:06.958Z,56.25
2022-09-17T06:48:06.946Z,56.25
2022-09-17T06:49:06.935Z,50.62
2022-09-17T06:50:06.948Z,50.62
2022-09-17T06:51:06.929Z,50.62
2022-09-17T06:52:06.905Z,50.62
2022-09-17T06:53:06.891Z,50.62
2022-09-17T06:54:06.882Z,50.62
2022-09-17T06:55:06.873Z,50.62
2022-09-17T06:56:07.165Z,50.62
2022-09-17T06:57:06.852Z,45.00
2022-09-17T06:58:06.842Z,39.38
2022-09-17T06:59:06.953Z,33.75
2022-09-17T07:00:06.812Z,39.38
2022-09-17T07:01:06.896Z,33.75
2022-09-17T07:02:06.842Z,33.75
2022-09-17T07:03:06.785Z,33.75
2022-09-17T07:04:06.776Z,33.75
2022-09-17T07:05:06.756Z,28.12
2022-09-17T07:06:06.766Z,28.12
2022-09-17T07:07:06.741Z,28.12
2022-09-17T07:08:06.724Z,28.12
2022-09-17T07:09:10.767Z,28.12
2022-09-17T07:10:06.710Z,28.12
2022-09-17T07:11:06.713Z,22.50
2022-09-17T07:12:06.683Z,22.50
2022-09-17T07:13:06.665Z,22.50
2022-09-17T07:14:06.667Z,22.50
2022-09-17T07:15:06.759Z,22.50
2022-09-17T07:16:06.719Z,28.12
2022-09-17T07:17:06.629Z,28.12
2022-09-17T07:18:06.616Z,33.75
2022-09-17T07:19:06.965Z,45.00
2022-09-17T07:20:06.588Z,61.88
2022-09-17T07:21:06.592Z,67.50
2022-09-17T07:22:06.573Z,67.50
2022-09-17T07:23:06.559Z,61.88
2022-09-17T07:24:06.544Z,61.88
2022-09-17T07:25:06.529Z,73.12
2022-09-17T07:26:06.540Z,73.12
2022-09-17T07:27:06.514Z,78.75
2022-09-17T07:28:06.496Z,78.75
2022-09-17T07:29:06.484Z,84.38
2022-09-17T07:30:06.475Z,78.75
2022-09-17T07:31:06.647Z,78.75
2022-09-17T07:32:06.462Z,67.50
2022-09-17T07:33:06.446Z,61.88
2022-09-17T07:34:06.428Z,56.25
2022-09-17T07:35:06.423Z,50.62
2022-09-17T07:36:06.436Z,56.25
2022-09-17T07:37:06.396Z,50.62
2022-09-17T07:38:06.385Z,45.00
2022-09-17T07:39:06.377Z,45.00
2022-09-17T07:40:06.433Z,39.38
2022-09-17T07:41:06.368Z,39.38
2022-09-17T07:42:06.349Z,50.62
2022-09-17T07:43:06.327Z,56.25
2022-09-17T07:44:06.325Z,67.50
2022-09-17T07:45:06.307Z,61.88
2022-09-17T07:46:06.361Z,67.50
2022-09-17T07:47:06.410Z,73.12
2022-09-17T07:48:06.272Z,61.88
2022-09-17T07:49:06.268Z,61.88
2022-09-17T07:50:06.251Z,61.88
2022-09-17T07:51:06.258Z,67.50
2022-09-17T07:52:06.290Z,67.50
2022-09-17T07:53:06.223Z,73.12
2022-09-17T07:54:06.208Z,67.50
2022-09-17T07:55:06.206Z,78.75
2022-09-17T07:56:11.083Z,95.62
2022-09-17T07:57:07.174Z,101.25
2022-09-17T07:58:06.156Z,73.12
2022-09-17T07:59:06.144Z,61.88
2022-09-17T08:00:06.134Z,67.50
2022-09-17T08:01:06.187Z,84.38
2022-09-17T08:02:06.211Z,95.62
2022-09-17T08:03:06.258Z,101.25
2022-09-17T08:04:06.103Z,112.50
2022-09-17T08:05:06.091Z,123.75
2022-09-17T08:06:06.087Z,101.25
2022-09-17T08:07:06.066Z,73.12
2022-09-17T08:08:06.057Z,73.12
2022-09-17T08:09:06.038Z,73.12
2022-09-17T08:10:06.042Z,78.75
2022-09-17T08:11:06.033Z,73.12
2022-09-17T08:12:06.014Z,78.75
2022-09-17T08:13:05.998Z,84.38
2022-09-17T08:14:05.987Z,84.38
2022-09-17T08:15:05.989Z,90.00
2022-09-17T08:16:06.074Z,90.00
2022-09-17T08:17:05.956Z,84.38
2022-09-17T08:18:05.942Z,84.38
2022-09-17T08:19:06.073Z,90.00
2022-09-17T08:20:05.919Z,90.00
2022-09-17T08:21:05.920Z,90.00
2022-09-17T08:22:05.897Z,95.62
2022-09-17T08:23:05.888Z,95.62
2022-09-17T08:24:05.877Z,95.62
2022-09-17T08:25:05.856Z,90.00
2022-09-17T08:26:05.935Z,101.25
2022-09-17T08:27:05.843Z,101.25
2022-09-17T08:28:05.829Z,95.62
2022-09-17T08:29:05.810Z,135.00
2022-09-17T08:30:05.800Z,140.62
2022-09-17T08:31:05.893Z,118.12
2022-09-17T08:32:05.777Z,78.75
2022-09-17T08:33:05.767Z,67.50
2022-09-17T08:34:05.758Z,73.12
2022-09-17T08:35:05.870Z,67.50
2022-09-17T08:36:05.742Z,56.25
2022-09-17T08:37:05.738Z,56.25
2022-09-17T08:38:05.718Z,56.25
2022-09-17T08:39:05.710Z,67.50
2022-09-17T08:40:05.783Z,84.38
2022-09-17T08:41:05.682Z,84.38
2022-09-17T08:42:05.678Z,73.12
2022-09-17T08:43:05.658Z,56.25
2022-09-17T08:44:05.655Z,61.88
2022-09-17T08:45:05.637Z,118.12
2022-09-17T08:46:05.684Z,123.75
2022-09-17T08:47:05.630Z,129.38
2022-09-17T08:48:05.599Z,140.62
2022-09-17T08:49:05.593Z,163.12
2022-09-17T08:50:05.583Z,168.75
2022-09-17T08:51:08.540Z,90.00
2022-09-17T08:52:05.572Z,208.12
2022-09-17T08:53:05.554Z,196.88
2022-09-17T08:54:05.539Z,185.62
2022-09-17T08:55:05.525Z,163.12
2022-09-17T08:56:05.516Z,174.38
2022-09-17T08:57:05.506Z,168.75
2022-09-17T08:58:05.571Z,151.88
2022-09-17T08:59:05.482Z,191.25
2022-09-17T09:00:05.465Z,202.50
2022-09-17T09:01:05.463Z,202.50
2022-09-17T09:02:05.632Z,196.88
2022-09-17T09:03:05.551Z,191.25
2022-09-17T09:04:05.430Z,196.88
2022-09-17T09:05:05.416Z,202.50
2022-09-17T09:06:10.522Z,174.38
2022-09-17T09:07:06.506Z,219.38
2022-09-17T09:08:05.395Z,253.12
2022-09-17T09:09:05.369Z,270.00
2022-09-17T09:10:05.386Z,264.38
2022-09-17T09:11:05.344Z,168.75
2022-09-17T09:12:05.331Z,118.12
2022-09-17T09:13:05.345Z,56.25
2022-09-17T09:14:05.316Z,73.12
2022-09-17T09:15:05.310Z,73.12
2022-09-17T09:16:05.354Z,106.88
2022-09-17T09:17:05.283Z,219.38
2022-09-17T09:18:05.293Z,90.00
2022-09-17T09:19:05.254Z,253.12
2022-09-17T09:20:05.242Z,258.75
2022-09-17T09:21:05.240Z,129.38
2022-09-17T09:22:05.226Z,230.62
2022-09-17T09:23:05.338Z,78.75
2022-09-17T09:24:05.200Z,84.38
2022-09-17T09:25:05.188Z,101.25
2022-09-17T09:26:05.178Z,241.88
2022-09-17T09:27:05.156Z,129.38
2022-09-17T09:28:05.170Z,90.00
2022-09-17T09:29:05.134Z,73.12
2022-09-17T09:30:05.130Z,61.88
2022-09-17T09:31:05.187Z,56.25
2022-09-17T09:32:15.289Z,50.62
2022-09-17T09:33:06.110Z,73.12
2022-09-17T09:34:05.086Z,230.62
2022-09-17T09:35:05.077Z,230.62
2022-09-17T09:36:05.058Z,253.12
2022-09-17T09:37:05.044Z,84.38
2022-09-17T09:38:05.045Z,73.12
2022-09-17T09:39:05.157Z,73.12
2022-09-17T09:40:05.092Z,95.62
2022-09-17T09:41:05.000Z,50.62
2022-09-17T09:42:05.005Z,39.38
2022-09-17T09:43:05.006Z,39.38
2022-09-17T09:44:05.609Z,33.75
2022-09-17T09:45:05.632Z,33.75
2022-09-17T09:46:04.955Z,45.00
2022-09-17T09:47:05.064Z,95.62
2022-09-17T09:48:04.943Z,84.38
2022-09-17T09:49:04.918Z,219.38
2022-09-17T09:50:04.896Z,208.12
2022-09-17T09:51:07.099Z,213.75
2022-09-17T09:52:04.874Z,213.75
2022-09-17T09:53:04.864Z,236.25
2022-09-17T09:54:04.873Z,253.12
2022-09-17T09:55:04.963Z,258.75
2022-09-17T09:56:04.828Z,230.62
2022-09-17T09:57:04.817Z,163.12
2022-09-17T09:58:04.806Z,241.88
2022-09-17T09:59:04.811Z,140.62
2022-09-17T10:00:04.790Z,118.12
2022-09-17T10:01:04.779Z,112.50
2022-09-17T10:02:04.871Z,146.25
2022-09-17T10:03:04.887Z,264.38
2022-09-17T10:04:04.762Z,129.38
2022-09-17T10:05:04.726Z,123.75
2022-09-17T10:06:04.716Z,90.00
2022-09-17T10:07:04.717Z,84.38
2022-09-17T10:08:04.694Z,78.75
2022-09-17T10:09:04.709Z,78.75
2022-09-17T10:10:04.673Z,61.88
2022-09-17T10:11:04.786Z,56.25
2022-09-17T10:12:04.651Z,78.75
2022-09-17T10:13:04.647Z,292.50
2022-09-17T10:14:09.253Z,264.38
2022-09-17T10:15:05.645Z,258.75
2022-09-17T10:16:04.641Z,78.75
2022-09-17T10:17:04.593Z,84.38
2022-09-17T10:18:04.583Z,123.75
2022-09-17T10:19:04.586Z,270.00
2022-09-17T10:20:04.570Z,286.88
2022-09-17T10:21:04.551Z,95.62
2022-09-17T10:22:04.550Z,61.88
2022-09-17T10:23:04.532Z,61.88
2022-09-17T10:24:04.530Z,247.50
2022-09-17T10:25:04.505Z,247.50
2022-09-17T10:26:04.495Z,258.75
2022-09-17T10:27:04.610Z,270.00
2022-09-17T10:28:04.480Z,253.12
2022-09-17T10:29:04.505Z,185.62
2022-09-17T10:30:04.452Z,146.25
2022-09-17T10:31:08.679Z,135.00
2022-09-17T10:32:04.440Z,241.88
2022-09-17T10:33:04.423Z,123.75
2022-09-17T10:34:04.430Z,151.88
2022-09-17T10:35:04.424Z,236.25
2022-09-17T10:36:04.385Z,106.88
2022-09-17T10:37:04.385Z,180.00
2022-09-17T10:38:04.371Z,225.00
2022-09-17T10:39:04.373Z,219.38
2022-09-17T10:40:04.388Z,219.38
2022-09-17T10:41:04.334Z,95.62
2022-09-17T10:42:04.318Z,135.00
2022-09-17T10:43:04.431Z,112.50
2022-09-17T10:44:04.301Z,185.62
2022-09-17T10:45:04.306Z,78.75
2022-09-17T10:46:04.373Z,73.12
2022-09-17T10:47:04.407Z,219.38
2022-09-17T10:48:04.248Z,106.88
2022-09-17T10:49:04.237Z,90.00
2022-09-17T10:50:04.256Z,241.88
2022-09-17T10:51:04.224Z,163.12
2022-09-17T10:52:04.205Z,101.25
2022-09-17T10:53:04.191Z,95.62
2022-09-17T10:54:04.193Z,95.62
2022-09-17T10:55:04.202Z,241.88
2022-09-17T10:56:04.161Z,225.00
2022-09-17T10:57:04.153Z,236.25
2022-09-17T10:58:04.154Z,230.62
2022-09-17T10:59:04.239Z,236.25
2022-09-17T11:00:04.133Z,135.00
2022-09-17T11:01:04.112Z,180.00
2022-09-17T11:02:04.221Z,247.50
2022-09-17T11:03:04.123Z,230.62
2022-09-17T11:04:04.075Z,213.75
2022-09-17T11:05:04.079Z,208.12
2022-09-17T11:06:04.046Z,140.62
2022-09-17T11:07:04.045Z,95.62
2022-09-17T11:08:04.023Z,101.25
2022-09-17T11:09:04.022Z,78.75
2022-09-17T11:10:04.024Z,78.75
2022-09-17T11:11:03.998Z,174.38
2022-09-17T11:12:03.988Z,123.75
2022-09-17T11:13:03.974Z,135.00
2022-09-17T11:14:03.964Z,236.25
2022-09-17T11:15:04.085Z,241.88
2022-09-17T11:16:03.995Z,230.62
2022-09-17T11:17:03.945Z,236.25
2022-09-17T11:18:03.919Z,236.25
2022-09-17T11:19:03.913Z,225.00
2022-09-17T11:20:03.914Z,230.62
2022-09-17T11:21:03.879Z,208.12
2022-09-17T11:22:03.874Z,163.12
2022-09-17T11:23:03.859Z,219.38
2022-09-17T11:24:03.935Z,213.75
2022-09-17T11:25:03.865Z,202.50
2022-09-17T11:26:03.824Z,95.62
2022-09-17T11:27:03.821Z,112.50
2022-09-17T11:28:03.801Z,101.25
2022-09-17T11:29:03.803Z,106.88
2022-09-17T11:30:03.794Z,112.50
2022-09-17T11:31:03.924Z,112.50
2022-09-17T11:32:03.759Z,146.25
2022-09-17T11:33:03.747Z,123.75
2022-09-17T11:34:03.743Z,112.50
2022-09-17T11:35:03.758Z,230.62
2022-09-17T11:36:03.717Z,202.50
2022-09-17T11:37:03.708Z,67.50
2022-09-17T11:38:03.693Z,73.12
2022-09-17T11:39:03.683Z,90.00
2022-09-17T11:40:03.755Z,180.00
2022-09-17T11:41:03.675Z,191.25
2022-09-17T11:42:03.649Z,225.00
2022-09-17T11:43:03.651Z,236.25
2022-09-17T11:44:03.636Z,213.75
2022-09-17T11:45:03.632Z,163.12
2022-09-17T11:46:03.609Z,106.88
2022-09-17T11:47:03.740Z,90.00
2022-09-17T11:48:03.590Z,73.12
2022-09-17T11:49:03.574Z,61.88
2022-09-17T11:50:03.573Z,39.38
2022-09-17T11:51:03.559Z,22.50
2022-09-17T11:52:03.541Z,16.88
2022-09-17T11:53:03.550Z,11.25
2022-09-17T11:54:03.518Z,16.88
2022-09-17T11:55:03.544Z,16.88
2022-09-17T11:56:03.501Z,16.88
2022-09-17T11:57:07.639Z,22.50
2022-09-17T11:58:04.486Z,39.38
2022-09-17T11:59:03.472Z,56.25
2022-09-17T12:00:03.467Z,67.50
2022-09-17T12:01:03.441Z,73.12
2022-09-17T12:02:03.523Z,84.38
2022-09-17T12:03:03.623Z,101.25
2022-09-17T12:04:03.417Z,95.62
2022-09-17T12:05:03.416Z,95.62
2022-09-17T12:06:03.392Z,146.25
2022-09-17T12:07:03.381Z,157.50
2022-09-17T12:08:03.369Z,123.75
2022-09-17T12:09:03.351Z,140.62
2022-09-17T12:10:03.362Z,168.75
2022-09-17T12:11:03.355Z,157.50
2022-09-17T12:12:04.017Z,151.88
2022-09-17T12:13:03.310Z,196.88
2022-09-17T12:14:03.295Z,208.12
2022-09-17T12:15:03.295Z,185.62
2022-09-17T12:16:03.312Z,230.62
2022-09-17T12:17:03.265Z,191.25
2022-09-17T12:18:27.873Z,230.62
2022-09-17T12:19:04.361Z,123.75
2022-09-17T12:20:03.242Z,208.12
2022-09-17T12:21:03.235Z,219.38
2022-09-17T12:22:03.206Z,202.50
2022-09-17T12:23:03.225Z,208.12
2022-09-17T12:24:03.182Z,202.50
2022-09-17T12:25:03.187Z,168.75
2022-09-17T12:26:03.170Z,163.12
2022-09-17T12:27:03.153Z,163.12
2022-09-17T12:28:03.139Z,163.12
2022-09-17T12:29:03.135Z,163.12
2022-09-17T12:30:03.131Z,56.25
2022-09-17T12:31:03.127Z,61.88
2022-09-17T12:32:03.092Z,56.25
2022-09-17T12:33:03.100Z,50.62
2022-09-17T12:34:03.077Z,84.38
2022-09-17T12:35:03.197Z,45.00
2022-09-17T12:36:04.962Z,45.00
2022-09-17T12:37:03.043Z,33.75
2022-09-17T12:38:03.039Z,33.75
2022-09-17T12:39:03.533Z,39.38
2022-09-17T12:40:03.084Z,45.00
2022-09-17T12:41:03.008Z,45.00
2022-09-17T12:42:02.987Z,45.00
2022-09-17T12:43:02.983Z,50.62
2022-09-17T12:44:02.965Z,45.00
2022-09-17T12:45:02.955Z,33.75
2022-09-17T12:46:02.994Z,28.12
2022-09-17T12:47:03.010Z,28.12
2022-09-17T12:48:02.914Z,33.75
2022-09-17T12:49:02.914Z,33.75
2022-09-17T12:50:02.899Z,39.38
2022-09-17T12:51:03.020Z,39.38
2022-09-17T12:52:02.879Z,45.00
2022-09-17T12:53:02.864Z,39.38
2022-09-17T12:54:02.860Z,45.00
2022-09-17T12:55:02.839Z,56.25
2022-09-17T12:56:02.839Z,61.88
2022-09-17T12:57:02.831Z,73.12
2022-09-17T12:58:02.804Z,73.12